Latest Coastal Weather Observations for Centre Island

IDD60701

Issued at 6:12 pm CST Saturday 31 January 2015 (issued every 10 minutes, with the page automatically refreshed every 10 minutes)

About coastal observations | Map of coastal stations | Coastal observations for NT | Marine services | Other Formats
Station Details ID: 014703 Name: CENTRE ISLAND Lat: -15.74 Lon: 136.82 Height: 12.2 m
Data from the previous 72 hours. | See also: Recent months at Centre Island
Date/Time
CST
Temp

°C
Wind Pressure Rain
since 9am
mm
Weather Cloud Vis
km
Sea
Height
m
Swell
Dir
 
Speed
knots
Gust
knots
hPa Trend Height
m
Period
s
Dir
31/06:00pm 33.5 NNW 10 13 1003.7 - 0.0 - - - - - - -
31/05:30pm 34.6 NNW 9 13 1003.6 - 0.0 - - - - - - -
31/05:00pm 35.3 NNW 9 12 1003.4 - 0.0 - - - - - - -
31/04:30pm 36.6 NNW 9 12 1003.3 - 0.0 - - - - - - -
31/04:00pm 36.5 NNE 6 7 1003.4 - 0.0 - - - - - - -
31/03:30pm 35.7 ENE 5 6 1003.7 - 0.0 - - - - - - -
31/03:00pm 37.8 WSW 6 8 1003.8 - 0.0 - - - - - - -
31/02:30pm 37.7 WSW 7 9 1004.1 - 0.0 - - - - - - -
31/02:00pm 36.7 WSW 6 8 1004.4 - 0.0 - - - - - - -
31/01:30pm 35.5 WSW 7 8 1004.8 - 0.0 - - - - - - -
31/01:00pm 36.0 WSW 8 9 1005.1 - 0.0 - - - - - - -
31/12:30pm 35.4 WSW 8 9 1005.4 - 0.0 - - - - - - -
31/12:00pm 34.5 WSW 9 10 1005.7 - 0.0 - - - - - - -
31/11:30am 33.7 WSW 10 11 1005.9 - 0.0 - - - - - - -
31/11:00am 33.1 WSW 10 12 1006.2 - 0.0 - - - - - - -
31/10:30am 32.6 WSW 11 13 1006.3 - 0.0 - - - - - - -
31/10:00am 31.6 WSW 10 13 1006.5 - 0.0 - - - - - - -
31/09:30am 30.4 W 12 14 1006.4 - 0.0 - - - - - - -
31/09:00am 29.4 WSW 13 15 1006.3 - 0.0 - - - - - - -
31/08:30am 29.6 W 13 15 1006.1 - 0.0 - - - - - - -
31/08:00am 29.2 W 12 15 1006.1 - 0.0 - - - - - - -
31/07:30am 28.7 WNW 11 16 1005.8 - 0.0 - - - - - - -
31/07:00am 28.3 WNW 11 14 1005.7 - 0.0 - - - - - - -
31/06:30am 27.8 WNW 9 11 1005.3 - 0.0 - - - - - - -
31/06:00am 28.0 WNW 8 10 1005.2 - 0.0 - - - - - - -
31/05:30am 28.1 WNW 8 10 1004.9 - 0.0 - - - - - - -
31/05:00am 28.4 WNW 9 11 1004.8 - 0.0 - - - - - - -
31/04:30am 28.9 WNW 10 14 1004.7 - 0.0 - - - - - - -
31/04:00am 29.0 WNW 11 15 1004.7 - 0.0 - - - - - - -
31/03:30am 28.8 NW 10 14 1004.7 - 0.0 - - - - - - -
31/03:00am 29.0 NW 10 14 1004.8 - 0.0 - - - - - - -
31/02:30am 29.2 NW 11 16 1005.0 - 0.0 - - - - - - -
31/02:00am 29.0 NW 10 15 1005.2 - 0.0 - - - - - - -
31/01:30am 29.0 NW 9 14 1005.6 - 0.0 - - - - - - -
31/01:00am 29.2 NNW 10 16 1005.8 - 0.0 - - - - - - -
31/12:30am 29.8 NNW 11 18 1006.1 - 0.0 - - - - - - -
31/12:00am 29.6 NNW 8 10 1006.3 - 0.0 - - - - - - -
 
Date/Time
CST
Temp

°C
Wind Pressure Rain
since 9am
mm
Weather Cloud Vis
km
Sea
Height
m
Swell
Dir
 
Speed
knots
Gust
knots
hPa Trend Height
m
Period
s
Dir
30/11:30pm 29.7 NNW 8 9 1006.5 - 0.0 - - - - - - -
30/11:00pm 29.9 NNW 8 10 1006.6 - 0.0 - - - - - - -
30/10:30pm 30.0 NNW 8 10 1006.4 - 0.0 - - - - - - -
30/10:00pm 30.3 NNW 8 11 1006.0 - 0.0 - - - - - - -
30/09:30pm 30.2 NNW 7 11 1005.9 - 0.0 - - - - - - -
30/09:00pm 30.4 NNW 8 11 1005.9 - 0.0 - - - - - - -
30/08:30pm 30.4 NNW 8 11 1005.7 - 0.0 - - - - - - -
30/08:00pm 30.5 NNW 8 11 1005.3 - 0.0 - - - - - - -
30/07:30pm 30.8 NNW 9 12 1005.0 - 0.0 - - - - - - -
30/07:00pm 31.3 NNW 8 11 1004.2 - 0.0 - - - - - - -
30/06:30pm 32.6 NNW 9 13 1003.8 - 0.0 - - - - - - -
30/06:00pm 34.1 NNW 9 12 1003.5 - 0.0 - - - - - - -
30/05:30pm 35.3 NNW 8 11 1002.9 - 0.0 - - - - - - -
30/05:00pm 36.1 NNW 7 9 1002.8 - 0.0 - - - - - - -
30/04:30pm 37.4 W 5 6 1003.0 - 0.0 - - - - - - -
30/04:00pm 37.3 W 4 6 1003.1 - 0.0 - - - - - - -
30/03:30pm 36.1 SE 3 4 1003.2 - 0.0 - - - - - - -
30/03:00pm 35.8 E 5 7 1003.4 - 0.0 - - - - - - -
30/02:30pm 35.4 ENE 5 6 1003.8 - 0.0 - - - - - - -
30/02:00pm 36.4 S 3 5 1004.2 - 0.0 - - - - - - -
30/01:30pm 35.4 S 5 6 1004.5 - 0.0 - - - - - - -
30/01:00pm 35.2 SSW 6 8 1004.9 - 0.0 - - - - - - -
30/12:30pm 35.5 SSW 6 8 1005.3 - 0.0 - - - - - - -
30/12:00pm 34.3 WSW 7 8 1005.6 - 0.0 - - - - - - -
30/11:30am 34.0 WSW 8 9 1005.8 - 0.0 - - - - - - -
30/11:00am 33.7 WSW 9 10 1006.1 - 0.0 - - - - - - -
30/10:30am 32.9 WSW 9 10 1006.3 - 0.0 - - - - - - -
30/10:00am 32.5 WSW 9 10 1006.3 - 0.0 - - - - - - -
30/09:30am 31.5 W 9 11 1006.5 - 0.0 - - - - - - -
30/09:00am 31.6 WSW 7 9 1006.4 - 0.0 - - - - - - -
30/08:30am 30.8 W 6 8 1006.4 - 0.0 - - - - - - -
30/08:00am 29.7 W 7 8 1006.3 - 0.0 - - - - - - -
30/07:30am 29.1 W 8 9 1006.2 - 0.0 - - - - - - -
30/07:00am 28.1 W 8 9 1005.8 - 0.0 - - - - - - -
30/06:30am 27.2 W 6 7 1005.5 - 0.0 - - - - - - -
30/06:00am 27.2 W 7 8 1005.3 - 0.0 - - - - - - -
30/05:30am 27.0 W 7 9 1005.0 - 0.0 - - - - - - -
30/05:00am 28.2 W 8 12 1004.6 - 0.0 - - - - - - -
30/04:30am 29.0 WSW 13 15 1004.4 - 0.0 - - - - - - -
30/04:00am 28.6 W 11 13 1004.4 - 0.0 - - - - - - -
30/03:30am 28.2 W 10 12 1004.5 - 0.0 - - - - - - -
30/03:00am 27.8 W 8 10 1004.5 - 0.0 - - - - - - -
30/02:30am 27.9 W 8 10 1004.6 - 0.0 - - - - - - -
30/02:00am 28.6 W 7 9 1004.9 - 0.0 - - - - - - -
30/01:30am 28.6 W 6 8 1005.2 - 0.0 - - - - - - -
30/01:00am 28.3 NW 6 7 1005.5 - 0.0 - - - - - - -
30/12:30am 28.5 NW 6 7 1005.8 - 0.0 - - - - - - -
30/12:00am 28.1 NNW 5 7 1006.0 - 0.0 - - - - - - -
 
Date/Time
CST
Temp

°C
Wind Pressure Rain
since 9am
mm
Weather Cloud Vis
km
Sea
Height
m
Swell
Dir
 
Speed
knots
Gust
knots
hPa Trend Height
m
Period
s
Dir
29/11:30pm 28.6 NW 7 9 1006.1 - 0.0 - - - - - - -
29/11:00pm 28.5 NNW 6 8 1006.0 - 0.0 - - - - - - -
29/10:30pm 28.7 NNW 6 8 1005.9 - 0.0 - - - - - - -
29/10:00pm 29.0 NNW 6 8 1005.7 - 0.0 - - - - - - -
29/09:30pm 29.2 NNW 6 8 1005.6 - 0.0 - - - - - - -
29/09:00pm 29.7 N 7 9 1005.2 - 0.0 - - - - - - -
29/08:30pm 29.7 NNW 6 7 1005.0 - 0.0 - - - - - - -
29/08:00pm 30.5 N 6 8 1004.7 - 0.0 - - - - - - -
29/07:30pm 30.9 N 6 8 1004.6 - 0.0 - - - - - - -
29/07:00pm 31.5 N 6 8 1004.3 - 0.0 - - - - - - -
29/06:30pm 32.8 NW 5 8 1004.0 - 0.0 - - - - - - -
29/06:00pm 35.2 W 5 7 1003.7 - 0.0 - - - - - - -
29/05:30pm 35.5 WSW 8 9 1003.4 - 0.0 - - - - - - -
29/05:00pm 36.1 WSW 7 8 1003.2 - 0.0 - - - - - - -
29/04:30pm 36.2 W 7 9 1002.9 - 0.0 - - - - - - -
29/04:00pm 36.8 WSW 7 9 1002.8 - 0.0 - - - - - - -
29/03:30pm 36.2 WSW 7 8 1002.8 - 0.0 - - - - - - -
29/03:00pm 36.1 WSW 7 8 1003.3 - 0.0 - - - - - - -
29/02:30pm 36.0 WSW 6 8 1003.5 - 0.0 - - - - - - -
29/02:00pm 35.8 W 5 6 1003.9 - 0.0 - - - - - - -
29/01:30pm 35.3 WSW 6 8 1004.3 - 0.0 - - - - - - -
29/01:00pm 34.6 WSW 6 8 1004.8 - 0.0 - - - - - - -
29/12:30pm 34.0 WSW 6 7 1005.3 - 0.0 - - - - - - -
29/12:00pm 33.2 W 6 7 1005.4 - 0.0 - - - - - - -
29/11:30am 33.1 WSW 6 7 1005.4 - 0.0 - - - - - - -
29/11:00am 32.2 WSW 6 8 1005.5 - 0.0 - - - - - - -
29/10:30am 31.5 WSW 7 8 1005.7 - 0.0 - - - - - - -
29/10:00am 30.6 WSW 7 8 1006.0 - 0.0 - - - - - - -
29/09:30am 30.8 SW 7 8 1006.0 - 0.0 - - - - - - -
29/09:00am 30.3 WSW 7 9 1005.9 - 0.0 - - - - - - -
29/08:30am 30.1 SSW 6 8 1005.7 - 0.0 - - - - - - -
29/08:00am 29.5 SSW 6 7 1005.5 - 0.0 - - - - - - -
29/07:30am 28.9 S 7 9 1005.2 - 0.0 - - - - - - -
29/07:00am 28.3 S 7 8 1004.8 - 0.0 - - - - - - -
29/06:30am 27.9 S 6 7 1004.5 - 0.0 - - - - - - -
29/06:00am 27.7 SSW 4 6 1004.1 - 0.0 - - - - - - -
29/05:30am 27.8 S 5 6 1003.9 - 0.0 - - - - - - -
29/05:00am 28.1 SSW 6 8 1003.5 - 0.0 - - - - - - -
29/04:30am 27.9 SSW 6 7 1003.4 - 0.0 - - - - - - -
29/04:00am 28.0 SSW 7 9 1003.6 - 0.0 - - - - - - -
29/03:30am 28.0 SSW 8 9 1003.8 - 0.0 - - - - - - -
29/03:00am 28.2 SW 7 9 1003.6 - 0.0 - - - - - - -
29/02:30am 28.4 W 4 5 1003.8 - 0.0 - - - - - - -
29/02:00am 28.5 W 4 5 1004.0 - 0.0 - - - - - - -
29/01:30am 28.6 WSW 7 9 1004.2 - 0.0 - - - - - - -
29/01:00am 27.9 WNW 4 5 1004.3 - 0.0 - - - - - - -
29/12:30am 28.5 NNW 5 6 1004.6 - 0.0 - - - - - - -
29/12:00am 29.5 NNE 8 10 1004.6 - 0.0 - - - - - - -
 
Date/Time
CST
Temp

°C
Wind Pressure Rain
since 9am
mm
Weather Cloud Vis
km
Sea
Height
m
Swell
Dir
 
Speed
knots
Gust
knots
hPa Trend Height
m
Period
s
Dir
28/11:30pm 29.7 NNE 8 11 1004.9 - 0.0 - - - - - - -
28/11:00pm 29.8 NNE 9 12 1004.9 - 0.0 - - - - - - -
28/10:30pm 30.0 NE 9 11 1004.8 - 0.0 - - - - - - -
28/10:00pm 30.0 NE 9 12 1004.9 - 0.0 - - - - - - -
28/09:30pm 30.0 NE 10 13 1004.6 - 0.0 - - - - - - -
28/09:00pm 30.2 NE 11 15 1004.4 - 0.0 - - - - - - -
28/08:30pm 30.2 NE 11 14 1004.3 - 0.0 - - - - - - -
28/08:00pm 30.2 NE 10 14 1004.0 - 0.0 - - - - - - -
28/07:30pm 30.3 ENE 11 13 1003.8 - 0.0 - - - - - - -
28/07:00pm 30.6 ENE 12 15 1003.4 - 0.0 - - - - - - -
28/06:30pm 31.0 E 13 15 1002.7 - 0.0 - - - - - - -

Other Formats:

Comma delimited format used in spreadsheet applications
http://www.bom.gov.au/fwo/IDD60701/IDD60701.94248.axf

JavaScript Object Notation format (JSON) in row-major order
http://www.bom.gov.au/fwo/IDD60701/IDD60701.94248.json